Time;durP1;ratioP1;P1;durP2;ratioP2;P2;SDS_P1;SDS_P2;PMS_P1;PMS_P2;Temp;Humidity;BMP_temperature;BMP_pressure;BME280_temperature;BME280_humidity;BME280_pressure;Samples;Min_cycle;Max_cycle;Signal;HPM_P1;HPM_P2
2022/10/07 00:01:00;;;;;;;7.10;2.00;;;;;;;8.37;88.08;101026.64;102418;1289;61593;-70
2022/10/07 00:03:47;;;;;;;14.20;2.80;;;;;;;8.34;88.56;101025.04;102457;1290;74101;-71
2022/10/07 00:06:34;;;;;;;9.70;2.20;;;;;;;8.33;88.65;101023.31;102530;1298;68268;-71
2022/10/07 00:09:20;;;;;;;9.90;2.20;;;;;;;8.34;88.74;101021.50;102484;1298;74059;-72
2022/10/07 00:12:07;;;;;;;8.50;2.40;;;;;;;8.33;88.60;101021.88;102465;1296;59267;-74
2022/10/07 00:14:54;;;;;;;8.70;2.40;;;;;;;8.31;89.07;101018.66;102479;1297;60852;-70
2022/10/07 00:17:41;;;;;;;11.50;2.90;;;;;;;8.29;89.12;101016.45;102486;1298;72054;-72
2022/10/07 00:20:28;;;;;;;9.10;2.10;;;;;;;8.28;89.19;101013.33;102355;1293;66315;-74
2022/10/07 00:23:14;;;;;;;10.40;2.30;;;;;;;8.27;89.14;101016.22;102302;1290;72624;-73
2022/10/07 00:26:05;;;;;;;8.60;2.10;;;;;;;8.25;88.95;101013.48;102120;1291;59377;-73
2022/10/07 00:28:52;;;;;;;12.60;2.40;;;;;;;8.23;89.37;101013.39;102080;1290;60168;-74
2022/10/07 00:31:40;;;;;;;10.30;2.60;;;;;;;8.21;89.23;101014.41;101983;1291;72080;-74
2022/10/07 00:34:27;;;;;;;10.50;2.30;;;;;;;8.18;89.70;101018.95;102189;1294;67653;-73
2022/10/07 00:37:14;;;;;;;10.60;2.40;;;;;;;8.16;89.76;101017.47;102024;1298;72444;-72
2022/10/07 00:40:01;;;;;;;10.70;2.10;;;;;;;8.15;89.65;101013.30;102144;1298;59358;-73
2022/10/07 00:42:48;;;;;;;9.80;2.30;;;;;;;8.14;89.42;101012.61;102378;1291;60016;-70
2022/10/07 00:45:36;;;;;;;9.40;2.20;;;;;;;8.13;89.35;101010.21;102746;1280;72229;-71
2022/10/07 00:48:28;;;;;;;10.70;1.80;;;;;;;8.13;89.31;101007.55;102126;1299;66436;-71
2022/10/07 00:51:16;;;;;;;10.10;2.00;;;;;;;8.14;89.13;101008.19;102434;1298;73141;-71
2022/10/07 00:54:15;;;;;;;8.60;2.10;;;;;;;8.15;88.70;101001.47;102642;1290;59269;-70
2022/10/07 00:57:02;;;;;;;10.90;2.30;;;;;;;8.16;88.82;101001.21;102447;1292;60993;-72
2022/10/07 00:59:50;;;;;;;11.80;2.30;;;;;;;8.17;88.69;100996.75;102338;1300;70635;-69
2022/10/07 01:02:38;;;;;;;10.80;2.20;;;;;;;8.16;88.41;100999.06;102302;1298;69287;-70
2022/10/07 01:05:25;;;;;;;12.70;2.10;;;;;;;8.14;88.29;100990.53;102259;1298;73165;-70
2022/10/07 01:08:14;;;;;;;9.60;1.90;;;;;;;8.15;88.29;100990.69;102434;1291;61016;-71
2022/10/07 01:11:36;;;;;;;8.90;2.10;;;;;;;8.16;88.35;100986.71;102800;1281;59345;-71
2022/10/07 01:14:37;;;;;;;9.40;2.20;;;;;;;8.17;88.11;100982.27;102707;1298;72819;-70
2022/10/07 01:17:34;;;;;;;10.00;1.90;;;;;;;8.16;87.88;100981.04;102554;1290;69450;-69
2022/10/07 01:20:51;;;;;;;9.40;2.10;;;;;;;8.16;88.07;100977.36;102322;1298;71493;-71
2022/10/07 01:23:46;;;;;;;12.30;2.10;;;;;;;8.16;87.98;100981.79;102593;1298;60102;-73
2022/10/07 01:26:50;;;;;;;10.40;2.20;;;;;;;8.15;87.74;100974.39;102525;1284;60742;-74
2022/10/07 01:29:54;;;;;;;13.00;2.40;;;;;;;8.13;87.80;100974.17;102398;1298;73679;-73
2022/10/07 01:32:52;;;;;;;8.10;1.80;;;;;;;8.09;87.88;100974.35;102247;1293;68227;-71
2022/10/07 01:35:42;;;;;;;11.50;2.00;;;;;;;8.08;88.07;100972.46;102459;1298;73366;-75
2022/10/07 01:38:32;;;;;;;10.60;2.40;;;;;;;8.08;88.01;100973.16;102208;1291;61052;-73
2022/10/07 01:41:21;;;;;;;10.50;2.60;;;;;;;8.08;88.04;100968.07;102246;1291;60703;-72
2022/10/07 01:44:12;;;;;;;10.60;2.30;;;;;;;8.07;87.80;100965.48;102370;1298;71987;-71
2022/10/07 01:46:59;;;;;;;9.10;2.00;;;;;;;8.06;88.08;100961.63;102095;1290;69236;-71
2022/10/07 01:49:46;;;;;;;13.10;2.00;;;;;;;8.06;88.14;100962.89;102221;1292;71608;-70
2022/10/07 01:53:14;;;;;;;12.20;2.10;;;;;;;8.04;88.16;100963.66;102437;1298;61007;-71
2022/10/07 01:56:44;;;;;;;10.70;1.90;;;;;;;8.02;88.03;100961.80;102436;1294;59399;-70
2022/10/07 01:59:43;;;;;;;9.70;2.10;;;;;;;8.00;88.23;100960.84;102467;1298;191147;-70
2022/10/07 02:02:50;;;;;;;10.30;2.00;;;;;;;8.00;88.14;100963.02;102545;1298;69350;-72
2022/10/07 02:06:04;;;;;;;8.30;1.90;;;;;;;7.98;88.48;100957.27;102446;1297;74185;-70
2022/10/07 02:08:54;;;;;;;14.90;2.60;;;;;;;7.96;88.38;100957.91;102193;1298;59377;-70
2022/10/07 02:11:46;;;;;;;13.00;2.20;;;;;;;7.94;88.33;100961.16;102210;1298;59530;-69
2022/10/07 02:14:57;;;;;;;7.00;2.00;;;;;;;7.91;88.70;100958.55;102048;1292;72571;-70
2022/10/07 02:17:51;;;;;;;9.30;1.80;;;;;;;7.87;88.80;100956.61;102158;1294;66506;-70
2022/10/07 02:20:38;;;;;;;8.10;1.90;;;;;;;7.84;88.92;100952.90;102193;1291;73055;-70
2022/10/07 02:23:26;;;;;;;7.70;1.90;;;;;;;7.81;89.03;100953.02;102234;1298;59376;-71
2022/10/07 02:26:20;;;;;;;9.20;2.10;;;;;;;7.77;89.43;100954.13;102354;1295;61905;-70
2022/10/07 02:29:11;;;;;;;9.30;2.20;;;;;;;7.74;89.73;100954.06;102455;1298;72699;-71
2022/10/07 02:32:01;;;;;;;11.70;2.40;;;;;;;7.72;89.70;100952.95;102624;1291;68264;-72
2022/10/07 02:34:54;;;;;;;12.00;2.20;;;;;;;7.70;89.50;100950.23;102505;1298;74233;-71
2022/10/07 02:37:44;;;;;;;10.80;1.90;;;;;;;7.68;89.67;100948.96;102371;1293;60844;-72
2022/10/07 02:40:40;;;;;;;7.80;1.80;;;;;;;7.66;89.78;100950.44;102319;1297;61957;-71
2022/10/07 02:43:55;;;;;;;7.80;2.00;;;;;;;7.65;90.26;100953.82;102422;1298;70896;-69
2022/10/07 02:46:58;;;;;;;11.50;2.50;;;;;;;7.63;90.24;100953.05;102220;1294;69484;-70
2022/10/07 02:49:52;;;;;;;10.40;1.70;;;;;;;7.62;90.36;100954.34;102207;1290;74313;-71
2022/10/07 02:52:41;;;;;;;10.20;2.20;;;;;;;7.61;90.30;100956.35;102465;1298;59883;-71
2022/10/07 02:55:30;;;;;;;12.10;2.30;;;;;;;7.59;90.35;100955.02;102477;1290;60199;-71
2022/10/07 02:58:18;;;;;;;9.50;2.10;;;;;;;7.60;90.55;100950.38;102641;1298;72725;-71
2022/10/07 03:01:07;;;;;;;9.50;2.00;;;;;;;7.61;90.39;100952.11;102505;1285;69346;-70
2022/10/07 03:03:56;;;;;;;9.60;1.80;;;;;;;7.61;90.41;100953.37;102287;1290;72488;-71
2022/10/07 03:06:43;;;;;;;9.80;2.30;;;;;;;7.59;90.36;100953.27;102020;1298;59410;-69
2022/10/07 03:09:30;;;;;;;9.30;1.90;;;;;;;7.56;90.55;100956.46;102447;1291;59855;-71
2022/10/07 03:12:17;;;;;;;7.30;2.10;;;;;;;7.53;90.92;100956.23;102439;1298;72627;-70
2022/10/07 03:15:04;;;;;;;9.00;2.10;;;;;;;7.50;90.73;100956.73;101712;1297;1002426;-69
2022/10/07 03:17:51;;;;;;;8.80;2.20;;;;;;;7.46;91.14;100950.02;101948;1298;73112;-70
2022/10/07 03:20:38;;;;;;;8.90;1.90;;;;;;;7.42;91.38;100951.27;102364;1298;60969;-71
2022/10/07 03:23:28;;;;;;;9.30;2.00;;;;;;;7.40;91.73;100949.63;102310;1298;60539;-71
2022/10/07 03:26:16;;;;;;;8.80;1.90;;;;;;;7.35;91.99;100951.13;102031;1293;72152;-70
2022/10/07 03:29:04;;;;;;;10.90;2.20;;;;;;;7.31;92.12;100944.26;102271;1300;69340;-71
2022/10/07 03:31:53;;;;;;;9.40;2.20;;;;;;;7.28;91.92;100948.13;102093;1301;71450;-71
2022/10/07 03:34:40;;;;;;;9.40;2.00;;;;;;;7.23;92.11;100952.95;101860;1294;59917;-72
2022/10/07 03:37:29;;;;;;;9.70;2.30;;;;;;;7.20;92.53;100953.80;101914;1301;60646;-70
2022/10/07 03:40:18;;;;;;;8.90;2.00;;;;;;;7.17;92.72;100953.07;102068;1303;72663;-70
2022/10/07 03:43:06;;;;;;;9.30;2.10;;;;;;;7.14;92.79;100951.81;101951;1301;66462;-70
2022/10/07 03:45:53;;;;;;;12.30;2.20;;;;;;;7.11;93.15;100958.45;102314;1293;71003;-70
2022/10/07 03:48:40;;;;;;;12.40;2.50;;;;;;;7.10;92.95;100955.17;102166;1301;59322;-71
2022/10/07 03:51:26;;;;;;;9.40;2.10;;;;;;;7.08;93.17;100958.46;102168;1301;60791;-71
2022/10/07 03:54:14;;;;;;;11.60;2.40;;;;;;;7.04;93.85;100959.52;101354;1301;1002443;-69
2022/10/07 03:57:01;;;;;;;11.40;2.50;;;;;;;7.01;94.00;100955.10;102124;1301;69318;-71
2022/10/07 03:59:48;;;;;;;10.80;2.30;;;;;;;6.98;93.98;100953.98;101986;1301;74158;-72
2022/10/07 04:02:35;;;;;;;11.10;2.20;;;;;;;6.96;94.14;100952.48;102193;1290;61185;-69
2022/10/07 04:05:22;;;;;;;9.20;2.50;;;;;;;6.95;94.58;100946.36;102002;1299;61567;-70
2022/10/07 04:08:14;;;;;;;12.50;2.70;;;;;;;6.93;94.53;100952.29;102403;1290;72983;-71
2022/10/07 04:11:02;;;;;;;12.60;2.80;;;;;;;6.91;94.73;100946.94;102462;1290;68249;-70
2022/10/07 04:13:49;;;;;;;10.50;2.10;;;;;;;6.89;94.43;100941.55;102309;1298;74076;-71
2022/10/07 04:16:37;;;;;;;11.10;2.20;;;;;;;6.86;94.79;100943.82;102245;1298;59282;-71
2022/10/07 04:19:25;;;;;;;8.40;2.30;;;;;;;6.81;95.01;100938.73;102353;1298;60166;-72
2022/10/07 04:22:12;;;;;;;10.20;2.60;;;;;;;6.77;95.19;100943.02;104626;1281;73700;-72
2022/10/07 04:28:11;;;;;;;9.20;2.20;;;;;;;6.72;95.16;100936.36;102496;1290;73132;-72
2022/10/07 04:31:03;;;;;;;11.00;2.60;;;;;;;6.70;95.64;100934.71;102547;1298;59507;-72
2022/10/07 04:33:52;;;;;;;9.20;2.70;;;;;;;6.69;95.62;100930.70;102132;1301;62442;-73
2022/10/07 04:36:42;;;;;;;11.80;3.10;;;;;;;6.68;95.77;100931.06;102520;1298;73720;-71
2022/10/07 04:39:32;;;;;;;11.10;3.20;;;;;;;6.68;95.60;100932.48;102553;1298;67708;-72
2022/10/07 04:45:47;;;;;;;12.70;3.60;;;;;;;6.64;95.89;100933.21;102512;1284;59634;-70
2022/10/07 04:48:36;;;;;;;8.60;3.10;;;;;;;6.61;96.43;100932.13;102270;1291;61807;-72
2022/10/07 04:51:24;;;;;;;11.40;3.80;;;;;;;6.58;96.58;100934.02;102553;1291;73655;-72
2022/10/07 04:54:12;;;;;;;10.20;3.10;;;;;;;6.56;96.48;100928.85;102520;1298;67618;-73
2022/10/07 04:57:08;;;;;;;13.00;3.90;;;;;;;6.55;96.63;100928.01;102514;1298;73992;-73
2022/10/07 04:59:55;;;;;;;9.20;3.50;;;;;;;6.53;96.98;100926.67;102550;1298;59293;-72
2022/10/07 05:02:45;;;;;;;12.60;3.80;;;;;;;6.53;96.82;100931.10;102318;1298;61647;-72
2022/10/07 05:05:33;;;;;;;11.50;3.30;;;;;;;6.53;96.75;100931.11;102262;1297;72040;-73
2022/10/07 05:08:23;;;;;;;11.50;3.80;;;;;;;6.54;96.86;100928.25;102295;1298;68333;-72
2022/10/07 05:11:10;;;;;;;11.40;3.40;;;;;;;6.54;96.84;100928.57;102464;1298;73174;-72
2022/10/07 05:14:03;;;;;;;10.70;4.50;;;;;;;6.55;96.64;100929.40;102572;1298;60409;-72
2022/10/07 05:16:50;;;;;;;14.00;4.20;;;;;;;6.56;96.52;100920.00;102493;1298;60777;-72
2022/10/07 05:19:38;;;;;;;18.00;4.80;;;;;;;6.59;96.48;100918.45;102275;1292;70528;-72
2022/10/07 05:22:25;;;;;;;11.50;4.00;;;;;;;6.62;96.35;100919.53;102209;1290;69189;-71
2022/10/07 05:25:12;;;;;;;13.00;4.00;;;;;;;6.65;96.12;100925.40;102516;1298;72515;-73
2022/10/07 05:27:58;;;;;;;13.40;4.50;;;;;;;6.69;96.01;100925.02;102401;1292;61609;-73
2022/10/07 05:30:45;;;;;;;12.40;3.90;;;;;;;6.72;95.70;100926.46;102311;1297;60314;-73
2022/10/07 05:33:34;;;;;;;11.80;3.60;;;;;;;6.76;95.45;100934.39;102438;1300;71951;-74
2022/10/07 05:36:20;;;;;;;11.40;3.70;;;;;;;6.81;95.38;100932.59;102456;1299;67915;-74
2022/10/07 05:39:09;;;;;;;17.40;3.70;;;;;;;6.83;95.16;100933.17;102419;1292;70989;-74
2022/10/07 05:42:02;;;;;;;11.90;3.60;;;;;;;6.86;95.13;100930.91;102231;1301;59796;-74
2022/10/07 05:44:55;;;;;;;13.70;4.10;;;;;;;6.90;94.96;100935.51;102190;1297;60788;-73
2022/10/07 05:47:42;;;;;;;13.50;3.80;;;;;;;6.92;94.76;100937.67;102203;1301;73652;-74
2022/10/07 05:50:31;;;;;;;13.90;3.80;;;;;;;6.95;94.62;100941.06;102203;1301;68421;-74
2022/10/07 05:53:17;;;;;;;13.30;3.60;;;;;;;7.00;94.50;100941.56;102070;1301;72365;-74
2022/10/07 05:56:15;;;;;;;12.20;3.90;;;;;;;7.04;94.22;100946.13;102109;1298;59411;-74
2022/10/07 05:59:02;;;;;;;16.50;4.10;;;;;;;7.10;94.34;100944.58;102313;1301;59456;-76
2022/10/07 06:01:49;;;;;;;16.10;4.40;;;;;;;7.17;93.82;100951.86;102520;1301;72140;-74
2022/10/07 06:04:41;;;;;;;12.40;3.80;;;;;;;7.24;93.35;100953.61;102210;1301;69471;-74
2022/10/07 06:07:29;;;;;;;13.30;3.30;;;;;;;7.33;93.28;100954.58;102292;1298;72258;-73
2022/10/07 06:13:23;;;;;;;11.90;3.70;;;;;;;7.52;92.24;100953.95;102314;1296;59894;-73
2022/10/07 06:16:09;;;;;;;11.30;3.60;;;;;;;7.62;91.76;100956.14;102281;1297;71991;-75
2022/10/07 06:18:56;;;;;;;9.60;3.00;;;;;;;7.70;91.25;100958.88;101972;1289;1003112;-72
2022/10/07 06:21:45;;;;;;;12.90;3.20;;;;;;;7.80;90.75;100965.46;102540;1298;73145;-72
2022/10/07 06:24:32;;;;;;;12.30;3.30;;;;;;;7.89;90.33;100963.79;102597;1297;61152;-72
2022/10/07 06:27:21;;;;;;;9.90;3.20;;;;;;;7.97;90.03;100967.73;102277;1294;61063;-74
2022/10/07 06:30:09;;;;;;;10.60;3.20;;;;;;;8.06;89.47;100964.09;102549;1296;72162;-73
2022/10/07 06:32:56;;;;;;;10.60;3.00;;;;;;;8.16;89.09;100959.69;102334;1298;66349;-74
2022/10/07 06:35:44;;;;;;;12.70;3.60;;;;;;;8.29;88.80;100957.59;102554;1296;74196;-74
2022/10/07 06:38:31;;;;;;;13.00;3.30;;;;;;;8.41;88.20;100960.99;102300;1298;59339;-73
2022/10/07 06:41:20;;;;;;;13.70;4.00;;;;;;;8.57;87.69;100961.73;102292;1297;62046;-73
2022/10/07 06:44:07;;;;;;;11.90;3.90;;;;;;;8.81;86.63;100966.11;101080;1290;1002970;-72
2022/10/07 06:46:54;;;;;;;12.20;3.90;;;;;;;9.25;84.93;100969.56;102268;1297;67213;-72
2022/10/07 06:49:41;;;;;;;12.70;3.20;;;;;;;10.62;80.91;100965.58;102486;1298;73348;-74
2022/10/07 06:52:28;;;;;;;16.40;3.50;;;;;;;12.46;75.77;100960.24;102262;1298;59362;-76
2022/10/07 06:55:16;;;;;;;14.70;3.70;;;;;;;14.13;68.03;100956.91;102468;1297;60207;-75
2022/10/07 06:58:02;;;;;;;22.70;4.20;;;;;;;15.70;63.45;100955.48;102813;1298;73617;-74
2022/10/07 07:00:58;;;;;;;16.60;4.00;;;;;;;17.16;59.00;100957.15;102246;1300;68500;-75
2022/10/07 07:03:45;;;;;;;15.40;3.90;;;;;;;18.47;53.47;100951.61;102257;1296;72997;-75
2022/10/07 07:06:36;;;;;;;19.60;3.60;;;;;;;19.62;49.62;100952.46;102233;1298;59402;-74
2022/10/07 07:09:24;;;;;;;13.20;3.10;;;;;;;20.53;45.74;100946.16;102505;1298;60122;-70
2022/10/07 07:12:11;;;;;;;15.90;3.30;;;;;;;21.00;42.39;100945.52;102717;1297;70670;-74
2022/10/07 07:15:00;;;;;;;15.90;3.70;;;;;;;21.64;42.12;100949.86;102491;1296;68275;-71
2022/10/07 07:17:48;;;;;;;10.30;2.70;;;;;;;22.37;40.68;100953.13;102380;1301;73677;-71
2022/10/07 07:20:37;;;;;;;11.90;3.30;;;;;;;22.99;38.21;100948.45;102425;1298;59350;-72
2022/10/07 07:23:24;;;;;;;15.40;3.30;;;;;;;23.42;37.90;100946.32;102465;1298;59389;-73
2022/10/07 07:26:12;;;;;;;13.90;3.00;;;;;;;23.89;36.38;100944.50;102381;1298;70654;-73
2022/10/07 07:29:05;;;;;;;26.60;5.60;;;;;;;23.60;34.68;100942.52;102430;1299;68641;-72
2022/10/07 07:31:57;;;;;;;29.70;5.50;;;;;;;23.48;35.56;100938.66;102481;1291;71104;-73
2022/10/07 07:34:44;;;;;;;33.20;6.20;;;;;;;23.61;35.00;100933.14;102987;1299;59346;-72
2022/10/07 07:37:35;;;;;;;41.10;7.10;;;;;;;23.80;35.12;100930.23;102346;1298;59965;-73
2022/10/07 07:40:21;;;;;;;44.20;7.50;;;;;;;24.02;34.65;100925.11;102518;1292;72237;-74
2022/10/07 07:43:08;;;;;;;36.40;6.90;;;;;;;24.39;33.94;100923.77;102243;1295;68754;-72
2022/10/07 07:45:58;;;;;;;31.10;6.20;;;;;;;24.70;33.52;100919.81;102474;1290;74229;-72
2022/10/07 07:48:45;;;;;;;31.40;5.90;;;;;;;24.91;33.18;100916.14;102511;1298;59382;-72
2022/10/07 07:51:32;;;;;;;37.80;7.20;;;;;;;25.09;32.52;100916.73;102281;1301;60100;-71
2022/10/07 07:54:19;;;;;;;39.70;6.90;;;;;;;25.02;32.31;100913.16;102241;1304;70854;-73
2022/10/07 07:57:08;;;;;;;34.80;6.10;;;;;;;25.09;32.25;100912.51;102226;1297;68426;-71
2022/10/07 07:59:56;;;;;;;39.00;6.70;;;;;;;24.84;31.82;100912.80;102405;1298;73103;-71
2022/10/07 08:02:43;;;;;;;34.40;6.40;;;;;;;25.06;32.10;100909.67;102628;1298;59393;-73
2022/10/07 08:05:34;;;;;;;26.20;4.90;;;;;;;24.75;32.21;100915.34;102511;1290;60232;-73
2022/10/07 08:08:21;;;;;;;17.50;3.20;;;;;;;25.19;31.57;100911.14;102273;1296;72668;-73
2022/10/07 08:11:10;;;;;;;11.70;3.00;;;;;;;25.63;31.24;100909.15;102272;1297;68361;-72
2022/10/07 08:13:58;;;;;;;16.90;3.00;;;;;;;25.94;30.66;100906.38;102276;1289;72978;-70
2022/10/07 08:16:46;;;;;;;15.80;4.00;;;;;;;26.50;30.57;100903.73;102348;1298;59321;-73
2022/10/07 08:19:32;;;;;;;25.50;4.80;;;;;;;26.47;29.40;100903.35;102314;1295;59685;-72
2022/10/07 08:22:19;;;;;;;14.10;3.00;;;;;;;26.48;29.69;100903.23;102561;1297;70787;-73
2022/10/07 08:25:08;;;;;;;13.80;2.30;;;;;;;26.44;29.56;100902.66;102529;1297;68357;-72
2022/10/07 08:27:55;;;;;;;10.60;2.70;;;;;;;27.15;29.25;100898.12;102309;1296;72519;-72
2022/10/07 08:30:42;;;;;;;10.60;2.10;;;;;;;27.62;27.98;100893.36;102420;1286;59331;-74
2022/10/07 08:33:38;;;;;;;11.30;2.40;;;;;;;27.73;27.95;100894.45;102317;1296;60612;-72
2022/10/07 08:36:27;;;;;;;11.20;2.00;;;;;;;27.97;27.36;100897.86;102833;1298;72820;-71
2022/10/07 08:39:14;;;;;;;10.70;1.70;;;;;;;27.93;26.90;100895.56;103739;1281;69298;-71
2022/10/07 08:42:38;;;;;;;13.80;2.50;;;;;;;27.89;27.12;100889.55;103986;1295;74201;-73
2022/10/07 08:45:33;;;;;;;9.40;2.20;;;;;;;27.78;27.38;100883.94;103911;1298;59295;-72
2022/10/07 08:48:30;;;;;;;18.10;5.40;;;;;;;28.03;27.04;100883.08;102589;1298;60238;-72
2022/10/07 08:51:30;;;;;;;18.80;3.40;;;;;;;28.37;26.71;100873.45;102368;1298;70560;-72
2022/10/07 08:54:29;;;;;;;11.80;2.00;;;;;;;27.97;26.47;100882.33;102776;1298;69282;-73
2022/10/07 08:57:46;;;;;;;10.40;2.20;;;;;;;27.73;27.05;100873.05;102893;1298;74034;-71
2022/10/07 09:01:00;;;;;;;9.90;1.70;;;;;;;27.71;26.77;100872.45;102194;1282;59617;-71
2022/10/07 09:04:31;;;;;;;11.40;2.50;;;;;;;27.15;27.01;100871.89;102343;1292;62709;-74
2022/10/07 09:07:34;;;;;;;9.60;2.30;;;;;;;26.97;27.21;100868.27;102501;1298;72159;-73
2022/10/07 09:10:37;;;;;;;9.00;1.70;;;;;;;26.78;27.40;100864.83;103005;1297;69148;-74
2022/10/07 09:13:29;;;;;;;8.80;2.00;;;;;;;26.42;27.90;100859.26;102326;1298;74218;-72
2022/10/07 09:16:40;;;;;;;9.60;2.20;;;;;;;26.65;27.91;100852.80;102483;1292;59469;-72
2022/10/07 09:19:37;;;;;;;7.70;1.50;;;;;;;26.90;27.33;100850.35;102515;1298;62047;-72
2022/10/07 09:22:41;;;;;;;8.60;1.70;;;;;;;27.05;27.27;100846.52;102071;1296;72284;-73
2022/10/07 09:25:30;;;;;;;7.10;1.40;;;;;;;27.22;27.02;100842.85;102633;1295;69222;-72
2022/10/07 09:28:20;;;;;;;11.20;1.80;;;;;;;27.18;26.57;100846.25;102543;1297;74075;-72
2022/10/07 09:31:13;;;;;;;8.20;1.50;;;;;;;27.01;26.90;100841.25;102572;1299;59297;-72
2022/10/07 09:34:00;;;;;;;8.60;1.60;;;;;;;26.38;27.34;100840.51;102422;1296;60413;-74
2022/10/07 09:37:21;;;;;;;9.40;1.70;;;;;;;26.95;27.46;100831.91;102292;1293;73608;-73
2022/10/07 09:40:31;;;;;;;9.00;1.70;;;;;;;27.68;26.61;100836.20;102309;1300;69052;-73
2022/10/07 09:43:18;;;;;;;9.10;1.80;;;;;;;28.28;26.08;100827.19;102568;1298;74242;-73
2022/10/07 09:46:04;;;;;;;10.30;1.60;;;;;;;28.79;25.14;100827.84;102546;1299;59238;-72
2022/10/07 09:48:53;;;;;;;10.30;1.70;;;;;;;28.26;25.19;100818.02;102476;1299;60758;-72
2022/10/07 09:51:40;;;;;;;7.80;1.70;;;;;;;27.72;25.82;100818.24;102357;1298;73643;-72
2022/10/07 09:54:29;;;;;;;9.50;1.60;;;;;;;27.47;26.42;100817.39;102569;1298;68235;-71
2022/10/07 09:57:23;;;;;;;10.90;1.80;;;;;;;28.04;25.49;100807.33;102517;1295;74107;-71
2022/10/07 10:00:25;;;;;;;9.70;1.70;;;;;;;28.03;25.45;100809.91;102386;1288;59475;-74
2022/10/07 10:03:12;;;;;;;7.60;1.50;;;;;;;27.82;25.40;100802.45;102836;1294;61664;-72
2022/10/07 10:06:05;;;;;;;8.70;1.80;;;;;;;28.15;24.94;100791.72;102646;1294;73982;-73
2022/10/07 10:08:56;;;;;;;9.40;1.70;;;;;;;28.17;24.51;100788.81;102239;1298;66362;-73
2022/10/07 10:11:43;;;;;;;7.50;1.70;;;;;;;27.72;24.71;100791.45;102522;1299;72609;-74
2022/10/07 10:14:50;;;;;;;9.50;1.80;;;;;;;27.96;24.66;100786.20;102340;1294;59908;-74
2022/10/07 10:17:39;;;;;;;7.80;1.70;;;;;;;28.24;24.03;100783.50;102356;1298;59400;-72
2022/10/07 10:20:38;;;;;;;8.60;1.70;;;;;;;28.38;23.74;100777.54;102593;1297;73713;-72
2022/10/07 10:23:55;;;;;;;8.70;2.40;;;;;;;28.44;23.76;100774.85;102546;1300;69181;-69
2022/10/07 10:27:00;;;;;;;8.70;1.70;;;;;;;28.55;24.09;100768.92;103337;1290;72557;-71
2022/10/07 10:29:59;;;;;;;8.80;1.80;;;;;;;29.01;23.51;100772.05;103006;1296;59280;-74
2022/10/07 10:33:08;;;;;;;8.50;1.80;;;;;;;29.69;23.18;100771.39;102849;1291;60112;-72
2022/10/07 10:36:13;;;;;;;7.40;1.80;;;;;;;29.71;22.85;100767.23;102786;1299;73864;-72
2022/10/07 10:39:27;;;;;;;8.30;1.60;;;;;;;30.33;22.15;100764.30;102529;1299;68064;-74
2022/10/07 10:42:21;;;;;;;6.70;1.60;;;;;;;29.75;22.48;100761.66;102602;1298;73261;-70
2022/10/07 10:45:14;;;;;;;9.20;2.00;;;;;;;29.70;22.65;100755.98;102882;1298;59337;-74
2022/10/07 10:48:43;;;;;;;11.00;1.70;;;;;;;29.72;22.56;100747.30;102798;1297;61924;-70
2022/10/07 10:52:01;;;;;;;8.50;1.70;;;;;;;30.12;22.37;100744.77;102322;1294;73591;-75
2022/10/07 10:55:13;;;;;;;11.80;1.60;;;;;;;29.86;22.08;100740.27;102279;1298;69182;-75
2022/10/07 10:58:14;;;;;;;11.50;2.10;;;;;;;30.36;22.01;100735.91;102531;1299;72512;-73
2022/10/07 11:01:23;;;;;;;10.20;1.70;;;;;;;30.58;21.73;100728.80;102687;1304;59304;-73
2022/10/07 11:04:49;;;;;;;11.30;2.30;;;;;;;30.85;21.44;100728.20;102651;1297;62154;-72
2022/10/07 11:07:42;;;;;;;7.30;1.30;;;;;;;30.16;21.56;100730.77;102540;1282;72116;-74
2022/10/07 11:11:05;;;;;;;8.20;1.90;;;;;;;29.48;22.19;100727.18;102583;1297;69436;-76
2022/10/07 11:14:04;;;;;;;7.70;1.50;;;;;;;29.11;23.19;100722.75;102710;1298;73048;-75
2022/10/07 11:17:02;;;;;;;8.60;1.60;;;;;;;29.11;23.58;100718.16;102534;1299;59298;-78
2022/10/07 11:20:26;;;;;;;10.80;2.00;;;;;;;28.69;23.75;100709.23;102112;1297;60260;-76
2022/10/07 11:23:45;;;;;;;13.10;1.90;;;;;;;28.15;24.63;100703.66;102519;1297;72023;-76
2022/10/07 11:27:00;;;;;;;13.70;2.20;;;;;;;27.37;25.89;100696.02;102598;1297;69692;-76
2022/10/07 11:30:22;;;;;;;12.30;2.50;;;;;;;26.59;26.85;100699.86;102361;1295;71003;-75
2022/10/07 11:33:25;;;;;;;8.70;2.00;;;;;;;25.92;27.65;100695.19;102557;1303;59199;-74
2022/10/07 11:36:23;;;;;;;7.70;2.00;;;;;;;25.34;27.61;100680.65;102576;1289;60302;-76
2022/10/07 11:39:10;;;;;;;10.70;2.20;;;;;;;25.20;28.03;100673.73;102285;1292;72000;-75
2022/10/07 11:42:21;;;;;;;12.40;2.30;;;;;;;25.24;28.45;100669.30;102407;1300;68255;-78
2022/10/07 11:45:48;;;;;;;9.60;1.70;;;;;;;24.73;27.82;100673.27;102532;1294;71189;-83
2022/10/07 11:49:07;;;;;;;9.20;1.40;;;;;;;23.48;28.91;100659.31;101923;1303;59596;-76
2022/10/07 11:52:07;;;;;;;11.80;1.90;;;;;;;22.92;29.68;100656.69;102106;1305;61651;-77
2022/10/07 11:55:05;;;;;;;7.90;1.40;;;;;;;22.59;30.00;100656.77;102007;1311;73813;-75
2022/10/07 11:57:56;;;;;;;8.00;1.40;;;;;;;22.52;30.21;100646.39;102050;1305;69027;-73
2022/10/07 12:00:42;;;;;;;7.40;1.60;;;;;;;22.61;30.14;100642.88;101883;1303;74133;-75
2022/10/07 12:03:35;;;;;;;6.00;1.20;;;;;;;22.54;30.05;100637.74;102131;1304;59451;-75
2022/10/07 12:06:22;;;;;;;7.40;1.40;;;;;;;22.32;30.17;100634.88;102161;1304;59268;-77
2022/10/07 12:10:17;;;;;;;9.50;1.50;;;;;;;22.22;30.66;100627.89;101807;1306;73858;-73
2022/10/07 12:13:09;;;;;;;9.50;1.90;;;;;;;21.57;31.76;100625.02;102015;1304;69303;-77
2022/10/07 12:16:22;;;;;;;16.40;2.80;;;;;;;21.43;32.25;100619.27;102043;1304;72441;-75
2022/10/07 12:19:12;;;;;;;12.00;2.30;;;;;;;21.23;32.97;100619.98;102366;1302;59469;-77
2022/10/07 12:21:58;;;;;;;10.80;1.60;;;;;;;20.84;33.62;100617.52;102288;1304;59344;-74
2022/10/07 12:25:05;;;;;;;10.60;1.50;;;;;;;20.32;34.39;100619.86;102255;1296;71935;-74
2022/10/07 12:27:57;;;;;;;12.60;1.60;;;;;;;19.92;35.17;100611.77;102549;1297;66344;-72
2022/10/07 12:30:54;;;;;;;7.90;1.80;;;;;;;19.67;35.38;100606.14;102300;1298;70073;-79
2022/10/07 12:33:44;;;;;;;22.30;3.40;;;;;;;19.37;36.13;100605.55;102216;1300;59376;-71
2022/10/07 12:36:31;;;;;;;21.20;3.60;;;;;;;18.90;36.97;100601.30;102490;1287;62051;-71
2022/10/07 12:39:34;;;;;;;16.40;3.60;;;;;;;18.56;37.47;100593.17;102368;1297;73031;-64
2022/10/07 12:42:21;;;;;;;11.00;1.90;;;;;;;18.07;38.56;100593.79;102051;1298;68401;-66
2022/10/07 12:45:09;;;;;;;10.10;1.40;;;;;;;17.84;39.08;100589.67;101857;1294;1003692;-73
2022/10/07 12:47:59;;;;;;;9.50;1.60;;;;;;;17.71;39.01;100584.85;102471;1297;59318;-71
2022/10/07 12:50:49;;;;;;;8.40;1.40;;;;;;;17.54;39.31;100580.77;102579;1299;61856;-73
2022/10/07 12:53:40;;;;;;;10.10;1.80;;;;;;;17.35;39.86;100575.76;102516;1299;70707;-75
2022/10/07 12:56:29;;;;;;;11.20;1.70;;;;;;;17.41;40.13;100568.73;102684;1296;68270;-74
2022/10/07 12:59:46;;;;;;;7.70;1.30;;;;;;;17.34;40.65;100562.44;102438;1298;73210;-73
2022/10/07 13:03:56;;;;;;;8.70;2.10;;;;;;;17.37;40.74;100555.73;102297;1290;59269;-73
2022/10/07 13:07:11;;;;;;;8.70;1.80;;;;;;;17.14;40.67;100548.56;103589;1297;59276;-71
2022/10/07 13:10:12;;;;;;;7.50;1.70;;;;;;;17.08;40.96;100536.71;102250;1297;71989;-72
2022/10/07 13:13:07;;;;;;;8.80;1.90;;;;;;;16.89;41.18;100539.60;102588;1294;69417;-70
2022/10/07 13:16:14;;;;;;;6.90;1.60;;;;;;;16.67;41.48;100533.96;102417;1297;71362;-73
2022/10/07 13:19:24;;;;;;;7.60;2.10;;;;;;;16.54;42.33;100530.59;102267;1298;59490;-71
2022/10/07 13:22:14;;;;;;;14.50;2.70;;;;;;;16.51;42.94;100528.28;102367;1305;60170;-72
2022/10/07 13:25:02;;;;;;;15.10;2.80;;;;;;;16.49;42.74;100525.27;101915;1297;73692;-71
2022/10/07 13:27:58;;;;;;;16.40;2.50;;;;;;;16.44;43.07;100518.98;102096;1295;68651;-72
2022/10/07 13:30:46;;;;;;;14.40;2.10;;;;;;;16.39;43.48;100511.02;102087;1302;73961;-72